createdAt,value
2019-05-16T00:00:59.299Z,1.43
2019-05-16T00:03:27.974Z,1.40
2019-05-16T00:05:58.223Z,1.57
2019-05-16T00:08:25.052Z,1.53
2019-05-16T00:10:52.466Z,1.63
2019-05-16T00:13:20.271Z,1.60
2019-05-16T00:15:48.074Z,1.50
2019-05-16T00:18:18.376Z,1.60
2019-05-16T00:20:45.969Z,1.47
2019-05-16T00:23:13.378Z,1.80
2019-05-16T00:25:41.518Z,1.50
2019-05-16T00:28:09.079Z,2.10
2019-05-16T00:30:38.960Z,1.60
2019-05-16T00:33:08.337Z,1.60
2019-05-16T00:35:35.652Z,1.60
2019-05-16T00:38:03.650Z,1.93
2019-05-16T00:40:31.205Z,2.00
2019-05-16T00:42:59.115Z,1.20
2019-05-16T00:45:29.155Z,1.60
2019-05-16T00:47:58.300Z,1.50
2019-05-16T00:50:25.533Z,1.40
2019-05-16T00:52:53.152Z,1.40
2019-05-16T00:55:20.818Z,1.70
2019-05-16T00:57:50.433Z,1.40
2019-05-16T01:00:22.847Z,1.53
2019-05-16T01:02:50.341Z,1.50
2019-05-16T01:05:19.150Z,1.60
2019-05-16T01:07:48.012Z,1.47
2019-05-16T01:10:18.135Z,1.60
2019-05-16T01:12:45.085Z,1.63
2019-05-16T01:15:12.816Z,1.87
2019-05-16T01:17:40.361Z,1.50
2019-05-16T01:20:08.597Z,1.63
2019-05-16T01:22:38.508Z,2.13
2019-05-16T01:25:09.038Z,1.77
2019-05-16T01:27:38.366Z,1.70
2019-05-16T01:30:05.996Z,1.50
2019-05-16T01:32:33.553Z,1.57
2019-05-16T01:35:00.920Z,1.30
2019-05-16T01:37:28.238Z,1.53
2019-05-16T01:39:55.739Z,1.47
2019-05-16T01:42:23.233Z,1.20
2019-05-16T01:44:52.009Z,1.40
2019-05-16T01:47:19.626Z,1.10
2019-05-16T01:49:48.751Z,1.30
2019-05-16T01:52:17.879Z,1.53
2019-05-16T01:54:45.407Z,1.40
2019-05-16T01:57:12.726Z,1.83
2019-05-16T01:59:40.249Z,1.30
2019-05-16T02:02:08.376Z,1.60
2019-05-16T02:04:38.109Z,1.60
2019-05-16T02:07:08.581Z,1.40
2019-05-16T02:09:38.380Z,1.40
2019-05-16T02:12:08.130Z,1.60
2019-05-16T02:14:35.327Z,1.33
2019-05-16T02:17:02.895Z,1.53
2019-05-16T02:19:30.449Z,1.50
2019-05-16T02:21:59.641Z,1.30
2019-05-16T02:24:28.470Z,1.40
2019-05-16T02:26:58.299Z,1.20
2019-05-16T02:29:25.747Z,1.33
2019-05-16T02:31:53.245Z,1.97
2019-05-16T02:34:21.731Z,1.33
2019-05-16T02:37:10.671Z,1.50
2019-05-16T02:39:31.986Z,1.90
2019-05-16T02:42:01.022Z,1.87
2019-05-16T02:44:31.963Z,1.70
2019-05-16T02:47:01.239Z,1.37
2019-05-16T02:49:30.750Z,2.00
2019-05-16T02:51:56.672Z,1.20
2019-05-16T02:54:24.142Z,1.53
2019-05-16T02:56:51.593Z,1.40
2019-05-16T02:59:20.619Z,1.60
2019-05-16T03:01:51.779Z,1.70
2019-05-16T03:04:17.551Z,1.70
2019-05-16T03:06:45.614Z,1.67
2019-05-16T03:09:13.217Z,1.60
2019-05-16T03:11:41.888Z,2.00
2019-05-16T03:14:11.254Z,1.50
2019-05-16T03:16:41.813Z,1.87
2019-05-16T03:19:12.169Z,1.77
2019-05-16T03:21:42.323Z,1.90
2019-05-16T03:24:11.349Z,1.80
2019-05-16T03:26:40.897Z,1.10
2019-05-16T03:29:11.198Z,1.47
2019-05-16T03:31:43.688Z,1.70
2019-05-16T03:34:08.042Z,1.60
2019-05-16T03:36:36.776Z,1.30
2019-05-16T03:39:05.206Z,1.40
2019-05-16T03:41:32.731Z,1.43
2019-05-16T03:44:01.375Z,1.60
2019-05-16T03:46:30.937Z,1.07
2019-05-16T03:49:02.034Z,1.43
2019-05-16T03:51:30.689Z,1.50
2019-05-16T03:53:56.971Z,1.63
2019-05-16T03:56:24.627Z,1.60
2019-05-16T03:58:52.170Z,1.67
2019-05-16T04:01:21.184Z,1.23
2019-05-16T04:03:51.131Z,2.53
2019-05-16T04:06:21.872Z,1.73
2019-05-16T04:08:51.022Z,1.40
2019-05-16T04:11:22.699Z,1.57
2019-05-16T04:13:47.059Z,1.70
2019-05-16T04:16:14.616Z,1.17
2019-05-16T04:18:42.358Z,1.70
2019-05-16T04:21:11.762Z,2.30
2019-05-16T04:23:41.993Z,1.77
2019-05-16T04:26:11.299Z,1.70
2019-05-16T04:28:41.288Z,1.50
2019-05-16T04:31:10.937Z,2.10
2019-05-16T04:33:37.676Z,1.70
2019-05-16T04:36:05.166Z,1.97
2019-05-16T04:38:40.677Z,1.90
2019-05-16T04:41:01.985Z,1.57
2019-05-16T04:43:31.538Z,1.83
2019-05-16T04:46:01.351Z,1.80
2019-05-16T04:48:31.075Z,1.50
2019-05-16T04:51:01.029Z,1.67
2019-05-16T04:53:27.443Z,3.83
2019-05-16T04:55:54.875Z,2.23
2019-05-16T04:58:23.737Z,1.87
2019-05-16T05:00:52.368Z,1.70
2019-05-16T05:03:21.127Z,2.03
2019-05-16T05:05:51.277Z,1.63
2019-05-16T05:08:21.397Z,1.60
2019-05-16T05:10:47.635Z,1.50
2019-05-16T05:13:15.180Z,1.37
2019-05-16T05:15:42.489Z,1.70
2019-05-16T05:18:12.042Z,1.90
2019-05-16T05:20:41.033Z,1.77
2019-05-16T05:23:09.850Z,2.13
2019-05-16T05:25:40.201Z,2.00
2019-05-16T05:28:06.881Z,1.30
2019-05-16T05:30:34.703Z,1.83
2019-05-16T05:33:02.342Z,3.30
2019-05-16T05:35:31.064Z,1.80
2019-05-16T05:38:00.407Z,1.57
2019-05-16T05:40:29.700Z,1.70
2019-05-16T05:42:59.731Z,1.57
2019-05-16T05:45:26.566Z,1.50
2019-05-16T05:47:54.038Z,1.37
2019-05-16T05:50:21.867Z,1.30
2019-05-16T05:52:51.151Z,1.63
2019-05-16T05:58:06.268Z,1.47
2019-05-16T06:00:33.788Z,1.30
2019-05-16T06:03:01.750Z,1.37
2019-05-16T06:05:30.589Z,1.53
2019-05-16T06:08:00.327Z,1.87
2019-05-16T06:10:27.797Z,1.30
2019-05-16T06:12:55.381Z,1.70
2019-05-16T06:15:23.301Z,2.10
2019-05-16T06:17:51.039Z,1.37
2019-05-16T06:20:20.368Z,1.57
2019-05-16T06:22:48.044Z,0.97
2019-05-16T06:25:15.640Z,1.40
2019-05-16T06:27:43.175Z,1.50
2019-05-16T06:30:11.739Z,1.50
2019-05-16T06:32:39.594Z,1.80
2019-05-16T06:35:09.545Z,1.30
2019-05-16T06:37:36.861Z,2.10
2019-05-16T06:40:04.540Z,1.30
2019-05-16T06:42:32.166Z,1.30
2019-05-16T06:45:00.872Z,1.23
2019-05-16T06:47:30.490Z,1.50
2019-05-16T06:50:00.074Z,1.40
2019-05-16T06:52:27.243Z,1.50
2019-05-16T06:54:55.867Z,1.40
2019-05-16T06:57:23.351Z,1.23
2019-05-16T06:59:50.881Z,1.50
2019-05-16T07:02:27.719Z,1.37
2019-05-16T07:04:50.448Z,1.73
2019-05-16T07:07:17.539Z,1.63
2019-05-16T07:09:58.155Z,1.80
2019-05-16T07:12:14.715Z,1.30
2019-05-16T07:14:43.744Z,2.80
2019-05-16T07:17:11.314Z,1.60
2019-05-16T07:19:40.790Z,1.07
2019-05-16T07:22:10.923Z,1.23
2019-05-16T07:24:39.829Z,1.63
2019-05-16T07:27:09.109Z,1.57
2019-05-16T07:29:37.193Z,1.57
2019-05-16T07:32:04.709Z,1.60
2019-05-16T07:34:32.066Z,1.67
2019-05-16T07:37:00.579Z,1.97
2019-05-16T07:39:30.516Z,1.70
2019-05-16T07:41:59.816Z,1.90
2019-05-16T07:44:26.754Z,2.00
2019-05-16T07:46:54.250Z,1.70
2019-05-16T07:49:21.878Z,1.70
2019-05-16T07:51:49.858Z,1.40
2019-05-16T07:54:17.666Z,1.57
2019-05-16T07:56:45.379Z,1.70
2019-05-16T07:59:12.955Z,1.60
2019-05-16T08:01:43.193Z,1.70
2019-05-16T08:04:11.432Z,1.83
2019-05-16T08:06:40.881Z,1.80
2019-05-16T08:09:12.079Z,1.70
2019-05-16T08:11:40.612Z,2.20
2019-05-16T08:14:07.333Z,1.50
2019-05-16T08:16:34.771Z,1.80
2019-05-16T08:19:02.317Z,1.80
2019-05-16T08:21:30.930Z,1.70
2019-05-16T08:24:05.833Z,1.80
2019-05-16T08:26:32.366Z,1.60
2019-05-16T08:29:01.778Z,1.80
2019-05-16T08:31:27.774Z,1.80
2019-05-16T08:33:55.855Z,1.67
2019-05-16T08:36:23.347Z,1.87
2019-05-16T08:38:51.674Z,1.57
2019-05-16T08:43:53.415Z,2.17
2019-05-16T08:46:20.715Z,2.13
2019-05-16T08:48:53.351Z,2.00
2019-05-16T08:51:21.992Z,1.80
2019-05-16T08:53:50.446Z,1.93
2019-05-16T08:56:21.468Z,2.20
2019-05-16T08:58:47.527Z,1.60
2019-05-16T09:01:15.180Z,1.80
2019-05-16T09:03:42.677Z,1.90
2019-05-16T09:06:11.918Z,1.83
2019-05-16T09:08:39.469Z,2.03
2019-05-16T09:10:31.602Z,1.60
2019-05-16T09:11:27.072Z,2.10
2019-05-16T09:13:37.069Z,2.20
2019-05-16T09:16:07.490Z,2.07
2019-05-16T09:18:40.807Z,1.90
2019-05-16T09:21:03.422Z,1.90
2019-05-16T09:23:31.973Z,2.13
2019-05-16T09:25:59.531Z,2.50
2019-05-16T09:28:28.286Z,2.00
2019-05-16T09:30:57.720Z,2.53
2019-05-16T09:33:27.148Z,2.70
2019-05-16T09:35:57.239Z,2.43
2019-05-16T09:38:24.118Z,2.43
2019-05-16T09:40:51.774Z,2.33
2019-05-16T09:43:19.344Z,2.30
2019-05-16T09:45:49.777Z,2.47
2019-05-16T09:48:18.976Z,2.60
2019-05-16T09:50:46.991Z,2.10
2019-05-16T09:53:16.911Z,2.50
2019-05-16T09:55:46.771Z,2.60
2019-05-16T09:58:13.810Z,3.20
2019-05-16T10:00:41.279Z,2.30
2019-05-16T10:03:10.178Z,2.60
2019-05-16T10:05:37.808Z,2.60
2019-05-16T10:08:07.048Z,3.00
2019-05-16T10:10:36.937Z,3.00
2019-05-16T10:13:06.674Z,2.90
2019-05-16T10:15:34.312Z,3.40
2019-05-16T10:18:01.848Z,3.13
2019-05-16T10:20:29.407Z,2.97
2019-05-16T10:22:57.980Z,4.40
2019-05-16T10:25:27.681Z,3.00
2019-05-16T10:27:55.379Z,3.13
2019-05-16T10:30:23.544Z,3.30
2019-05-16T10:32:51.339Z,3.53
2019-05-16T10:35:19.105Z,4.00
2019-05-16T10:37:47.484Z,4.37
2019-05-16T10:40:17.702Z,3.57
2019-05-16T10:42:47.159Z,2.77
2019-05-16T10:45:17.031Z,2.60
2019-05-16T10:47:47.781Z,2.70
2019-05-16T10:50:16.682Z,2.00
2019-05-16T10:52:44.259Z,2.23
2019-05-16T10:55:12.055Z,1.80
2019-05-16T10:57:40.118Z,1.80
2019-05-16T11:00:18.127Z,2.23
2019-05-16T11:02:38.034Z,2.03
2019-05-16T11:05:25.888Z,2.30
2019-05-16T11:07:37.125Z,2.67
2019-05-16T11:10:07.092Z,2.57
2019-05-16T11:12:47.586Z,2.80
2019-05-16T11:15:10.809Z,2.80
2019-05-16T11:17:37.183Z,2.80
2019-05-16T11:20:04.227Z,3.23
2019-05-16T11:22:31.722Z,3.13
2019-05-16T11:24:59.275Z,3.17
2019-05-16T11:27:26.894Z,3.00
2019-05-16T11:29:56.519Z,2.60
2019-05-16T11:32:23.608Z,2.47
2019-05-16T11:34:52.324Z,2.40
2019-05-16T11:37:19.862Z,3.57
2019-05-16T11:39:49.493Z,2.50
2019-05-16T11:42:17.640Z,2.43
2019-05-16T11:44:47.821Z,2.90
2019-05-16T11:47:16.596Z,2.60
2019-05-16T11:49:44.278Z,3.60
2019-05-16T11:52:11.781Z,3.33
2019-05-16T11:54:39.420Z,3.20
2019-05-16T11:57:07.254Z,3.60
2019-05-16T11:59:37.137Z,3.30
2019-05-16T12:02:04.551Z,3.43
2019-05-16T12:04:32.005Z,2.80
2019-05-16T12:06:59.497Z,3.47
2019-05-16T12:09:33.678Z,3.77
2019-05-16T12:12:03.918Z,3.40
2019-05-16T12:14:27.248Z,3.47
2019-05-16T12:16:56.939Z,3.33
2019-05-16T12:19:24.161Z,3.47
2019-05-16T12:21:51.737Z,4.57
2019-05-16T12:24:31.833Z,4.10
2019-05-16T12:26:48.886Z,3.60
2019-05-16T12:29:17.341Z,3.80
2019-05-16T12:31:55.380Z,3.70
2019-05-16T12:34:14.331Z,4.07
2019-05-16T12:36:41.844Z,3.47
2019-05-16T12:39:09.553Z,3.73
2019-05-16T12:41:40.957Z,3.80
2019-05-16T12:44:07.585Z,3.57
2019-05-16T12:46:36.563Z,4.10
2019-05-16T12:49:07.179Z,3.43
2019-05-16T12:51:37.010Z,4.07
2019-05-16T12:54:04.771Z,4.27
2019-05-16T12:56:32.350Z,3.70
2019-05-16T12:58:59.945Z,4.23
2019-05-16T13:01:34.197Z,3.47
2019-05-16T13:03:56.753Z,3.80
2019-05-16T13:06:24.575Z,4.10
2019-05-16T13:08:53.547Z,3.40
2019-05-16T13:11:26.846Z,3.90
2019-05-16T13:14:03.401Z,4.67
2019-05-16T13:16:22.877Z,3.57
2019-05-16T13:18:50.368Z,4.10
2019-05-16T13:21:19.151Z,3.80
2019-05-16T13:23:47.166Z,3.80
2019-05-16T13:26:17.490Z,4.00
2019-05-16T13:28:47.568Z,4.20
2019-05-16T13:31:16.935Z,3.87
2019-05-16T13:33:44.022Z,4.80
2019-05-16T13:36:11.485Z,3.90
2019-05-16T13:38:39.133Z,4.37
2019-05-16T13:41:07.565Z,4.70
2019-05-16T13:43:37.542Z,6.13
2019-05-16T13:46:07.036Z,6.20
2019-05-16T13:48:34.272Z,5.30
2019-05-16T13:51:13.851Z,4.90
2019-05-16T13:53:31.521Z,4.30
2019-05-16T13:55:59.213Z,4.10
2019-05-16T13:58:28.275Z,4.20
2019-05-16T14:00:57.175Z,4.00
2019-05-16T14:03:27.522Z,4.43
2019-05-16T14:05:54.278Z,4.03
2019-05-16T14:08:21.700Z,5.10
2019-05-16T14:10:49.403Z,6.03
2019-05-16T14:13:16.985Z,5.03
2019-05-16T14:15:47.087Z,4.53
2019-05-16T14:18:13.919Z,5.43
2019-05-16T14:20:41.511Z,5.00
2019-05-16T14:23:09.773Z,4.67
2019-05-16T14:25:38.092Z,4.67
2019-05-16T14:28:07.676Z,5.03
2019-05-16T14:30:37.177Z,4.47
2019-05-16T14:33:13.000Z,4.97
2019-05-16T14:35:34.585Z,4.67
2019-05-16T14:38:02.227Z,5.77
2019-05-16T14:40:29.921Z,5.00
2019-05-16T14:42:58.266Z,5.10
2019-05-16T14:45:26.370Z,5.30
2019-05-16T14:47:54.061Z,5.30
2019-05-16T14:50:21.541Z,4.77
2019-05-16T14:52:49.114Z,5.47
2019-05-16T14:55:18.594Z,4.60
2019-05-16T14:57:47.407Z,4.67
2019-05-16T15:00:18.500Z,5.60
2019-05-16T15:02:47.946Z,4.70
2019-05-16T15:05:16.148Z,5.20
2019-05-16T15:07:43.477Z,5.43
2019-05-16T15:10:11.579Z,4.53
2019-05-16T15:12:39.143Z,4.93
2019-05-16T15:15:20.229Z,5.17
2019-05-16T15:17:39.237Z,5.13
2019-05-16T15:20:08.095Z,5.03
2019-05-16T15:22:38.577Z,4.90
2019-05-16T15:25:09.496Z,5.27
2019-05-16T15:27:37.468Z,5.23
2019-05-16T15:30:06.950Z,5.13
2019-05-16T15:32:38.434Z,4.80
2019-05-16T15:35:07.432Z,4.93
2019-05-16T15:37:37.349Z,4.70
2019-05-16T15:40:07.212Z,4.80
2019-05-16T15:42:37.005Z,5.20
2019-05-16T15:45:06.831Z,4.90
2019-05-16T15:47:37.544Z,6.00
2019-05-16T15:50:07.874Z,5.87
2019-05-16T15:52:38.241Z,4.87
2019-05-16T15:55:10.190Z,6.10
2019-05-16T15:57:38.120Z,5.30
2019-05-16T16:00:10.473Z,5.87
2019-05-16T16:02:38.134Z,5.57
2019-05-16T16:05:07.308Z,6.10
2019-05-16T16:07:37.734Z,5.30
2019-05-16T16:10:07.191Z,7.37
2019-05-16T16:12:37.533Z,5.47
2019-05-16T16:15:07.583Z,6.10
2019-05-16T16:17:37.666Z,6.37
2019-05-16T16:20:09.904Z,6.50
2019-05-16T16:22:37.682Z,8.30
2019-05-16T16:25:06.889Z,7.73
2019-05-16T16:27:33.946Z,7.77
2019-05-16T16:30:02.574Z,5.83
2019-05-16T16:32:32.022Z,6.53
2019-05-16T16:34:59.447Z,5.87
2019-05-16T16:37:27.470Z,6.47
2019-05-16T16:39:57.462Z,6.10
2019-05-16T16:42:27.107Z,6.27
2019-05-16T16:44:56.448Z,7.00
2019-05-16T16:47:27.019Z,7.17
2019-05-16T16:49:59.050Z,6.80
2019-05-16T16:52:24.281Z,6.63
2019-05-16T16:54:51.874Z,7.10
2019-05-16T16:57:19.421Z,7.13
2019-05-16T16:59:47.757Z,6.40
2019-05-16T17:02:17.130Z,6.70
2019-05-16T17:04:50.285Z,6.87
2019-05-16T17:07:16.720Z,5.67
2019-05-16T17:09:44.222Z,5.80
2019-05-16T17:12:11.692Z,6.03
2019-05-16T17:14:39.241Z,5.53
2019-05-16T17:17:07.183Z,4.77
2019-05-16T17:19:36.708Z,5.30
2019-05-16T17:22:14.636Z,5.40
2019-05-16T17:24:36.496Z,4.93
2019-05-16T17:27:03.619Z,5.80
2019-05-16T17:29:31.051Z,6.40
2019-05-16T17:32:05.765Z,5.40
2019-05-16T17:34:28.431Z,5.40
2019-05-16T17:36:57.169Z,5.90
2019-05-16T17:39:24.709Z,5.47
2019-05-16T17:41:54.983Z,5.30
2019-05-16T17:44:22.313Z,5.80
2019-05-16T17:46:52.872Z,5.23
2019-05-16T17:49:19.837Z,5.30
2019-05-16T17:51:47.388Z,5.10
2019-05-16T17:54:17.104Z,5.97
2019-05-16T17:56:44.361Z,5.27
2019-05-16T17:59:12.094Z,6.60
2019-05-16T18:01:39.801Z,6.13
2019-05-16T18:04:07.546Z,6.13
2019-05-16T18:06:37.127Z,5.90
2019-05-16T18:09:06.750Z,6.30
2019-05-16T18:11:37.272Z,6.40
2019-05-16T18:14:06.252Z,6.20
2019-05-16T18:16:49.720Z,5.20
2019-05-16T18:19:06.908Z,6.40
2019-05-16T18:21:34.053Z,7.13
2019-05-16T18:24:01.562Z,7.07
2019-05-16T18:26:29.299Z,6.60
2019-05-16T18:28:59.123Z,6.70
2019-05-16T18:31:32.222Z,6.97
2019-05-16T18:34:00.258Z,8.47
2019-05-16T18:36:27.636Z,8.07
2019-05-16T18:38:57.268Z,7.53
2019-05-16T18:41:27.074Z,7.90
2019-05-16T18:43:56.471Z,7.17
2019-05-16T18:46:23.731Z,8.73
2019-05-16T18:48:51.530Z,7.93
2019-05-16T18:51:19.209Z,8.23
2019-05-16T18:53:46.892Z,9.90
2019-05-16T18:56:16.600Z,9.47
2019-05-16T18:58:43.986Z,9.10
2019-05-16T19:01:11.479Z,10.60
2019-05-16T19:03:39.181Z,11.07
2019-05-16T19:06:07.759Z,10.00
2019-05-16T19:08:36.441Z,9.20
2019-05-16T19:11:07.179Z,9.30
2019-05-16T19:13:34.186Z,10.70
2019-05-16T19:16:01.762Z,10.80
2019-05-16T19:18:29.345Z,10.33
2019-05-16T19:20:57.240Z,11.13
2019-05-16T19:23:27.299Z,11.87
2019-05-16T19:25:56.892Z,11.30
2019-05-16T19:28:28.258Z,11.07
2019-05-16T19:30:54.004Z,13.37
2019-05-16T19:33:21.537Z,10.87
2019-05-16T19:35:49.132Z,10.57
2019-05-16T19:38:17.085Z,11.40
2019-05-16T19:40:46.925Z,10.67
2019-05-16T19:43:14.278Z,12.13
2019-05-16T19:45:41.951Z,12.00
2019-05-16T19:48:09.851Z,12.27
2019-05-16T19:50:39.094Z,12.13
2019-05-16T19:53:07.690Z,12.60
2019-05-16T19:55:40.329Z,13.57
2019-05-16T19:58:07.990Z,14.30
2019-05-16T20:00:37.757Z,16.00
2019-05-16T20:03:07.381Z,15.97
2019-05-16T20:05:37.224Z,14.50
2019-05-16T20:08:06.649Z,15.27
2019-05-16T20:10:36.488Z,15.10
2019-05-16T20:13:04.107Z,15.40
2019-05-16T20:15:31.848Z,15.53
2019-05-16T20:17:59.382Z,16.17
2019-05-16T20:20:27.560Z,17.50
2019-05-16T20:22:56.692Z,16.50
2019-05-16T20:25:44.083Z,17.20
2019-05-16T20:28:18.484Z,18.27
2019-05-16T20:30:59.840Z,18.30
2019-05-16T20:33:37.930Z,18.57
2019-05-16T20:36:37.152Z,18.30
2019-05-16T20:39:13.315Z,20.10
2019-05-16T20:41:59.326Z,21.00
2019-05-16T20:44:46.394Z,20.73
2019-05-16T20:47:18.250Z,21.87
2019-05-16T20:49:58.227Z,22.40
2019-05-16T20:52:26.908Z,23.30
2019-05-16T20:54:57.865Z,23.97
2019-05-16T20:57:26.573Z,23.80
2019-05-16T20:59:54.180Z,25.43
2019-05-16T21:02:21.882Z,25.30
2019-05-16T21:04:49.525Z,26.90
2019-05-16T21:07:17.369Z,27.40
2019-05-16T21:09:46.142Z,26.73
2019-05-16T21:12:13.795Z,27.57
2019-05-16T21:14:41.248Z,27.70
2019-05-16T21:17:09.438Z,27.90
2019-05-16T21:19:39.349Z,28.00
2019-05-16T21:22:07.272Z,27.23
2019-05-16T21:24:37.263Z,27.67
2019-05-16T21:27:04.588Z,29.30
2019-05-16T21:29:32.354Z,29.50
2019-05-16T21:31:59.780Z,28.70
2019-05-16T21:34:27.371Z,28.00
2019-05-16T21:36:58.329Z,29.40
2019-05-16T21:39:26.482Z,30.30
2019-05-16T21:41:56.408Z,28.60
2019-05-16T21:44:23.398Z,29.93
2019-05-16T21:46:53.448Z,27.73
2019-05-16T21:49:20.302Z,27.73
2019-05-16T21:51:47.775Z,29.10
2019-05-16T21:54:15.673Z,29.50
2019-05-16T21:56:43.293Z,29.50
2019-05-16T21:59:10.936Z,32.90
2019-05-16T22:01:38.841Z,30.97
2019-05-16T22:04:07.351Z,32.80
2019-05-16T22:06:36.577Z,34.23
2019-05-16T22:09:06.782Z,32.47
2019-05-16T22:11:37.067Z,33.10
2019-05-16T22:14:06.494Z,34.97
2019-05-16T22:16:37.057Z,34.43
2019-05-16T22:19:06.940Z,33.63
2019-05-16T22:21:34.342Z,32.30
2019-05-16T22:24:03.248Z,34.77
2019-05-16T22:26:30.858Z,34.40
2019-05-16T22:28:58.336Z,35.40
2019-05-16T22:31:28.113Z,31.17
2019-05-16T22:33:55.736Z,33.57
2019-05-16T22:36:23.370Z,32.37
2019-05-16T22:38:50.850Z,33.60
2019-05-16T22:41:18.291Z,31.40
2019-05-16T22:43:46.687Z,34.07
2019-05-16T22:46:14.569Z,33.60
2019-05-16T22:48:42.752Z,31.30
2019-05-16T22:51:10.733Z,32.80
2019-05-16T22:53:38.874Z,31.00
2019-05-16T22:56:07.482Z,30.30
2019-05-16T22:58:35.272Z,30.47
2019-05-16T23:01:03.277Z,31.53
2019-05-16T23:03:30.779Z,31.57
2019-05-16T23:05:58.257Z,32.53
2019-05-16T23:08:27.258Z,30.27
2019-05-16T23:10:56.537Z,31.50
2019-05-16T23:13:26.646Z,31.50
2019-05-16T23:15:53.664Z,32.93
2019-05-16T23:18:21.247Z,29.00
2019-05-16T23:20:48.672Z,29.80
2019-05-16T23:23:17.438Z,31.67
2019-05-16T23:25:46.187Z,30.53
2019-05-16T23:28:13.670Z,30.37
2019-05-16T23:30:41.273Z,31.10
2019-05-16T23:33:09.480Z,29.00
2019-05-16T23:35:37.600Z,28.43
2019-05-16T23:38:16.430Z,29.77
2019-05-16T23:40:36.818Z,30.70
2019-05-16T23:43:03.989Z,29.00
2019-05-16T23:45:31.549Z,30.77
2019-05-16T23:47:59.061Z,30.03
2019-05-16T23:50:27.532Z,31.33
2019-05-16T23:52:56.330Z,28.90
2019-05-16T23:55:23.849Z,31.50
2019-05-16T23:57:51.363Z,29.67
